Time;durP1;ratioP1;P1;durP2;ratioP2;P2;SDS_P1;SDS_P2;PMS_P1;PMS_P2;Temp;Humidity;BMP_temperature;BMP_pressure;BME280_temperature;BME280_humidity;BME280_pressure;Samples;Min_cycle;Max_cycle;Signal;HPM_P1;HPM_P2
2022/03/11 00:00:13;;;;;;;0.20;0.20;;;;;;;;;;5045683;28;20660;-78
2022/03/11 00:02:44;;;;;;;0.20;0.20;;;;;;;;;;5043735;28;20728;-79
2022/03/11 00:05:12;;;;;;;0.20;0.20;;;;;;;;;;5043355;28;20614;-78
2022/03/11 00:07:41;;;;;;;0.20;0.20;;;;;;;;;;5027085;28;20618;-78
2022/03/11 00:10:10;;;;;;;0.20;0.20;;;;;;;;;;5045052;28;20613;-78
2022/03/11 00:12:38;;;;;;;0.20;0.20;;;;;;;;;;5027210;28;20610;-79
2022/03/11 00:15:06;;;;;;;0.10;0.10;;;;;;;;;;5025550;28;20653;-79
2022/03/11 00:17:34;;;;;;;0.20;0.20;;;;;;;;;;5019313;28;20722;-79
2022/03/11 00:20:01;;;;;;;0.10;0.10;;;;;;;;;;5043185;28;20613;-78
2022/03/11 00:22:29;;;;;;;0.20;0.20;;;;;;;;;;5042096;28;20613;-78
2022/03/11 00:24:56;;;;;;;0.10;0.10;;;;;;;;;;5041085;28;20614;-78
2022/03/11 00:27:25;;;;;;;0.20;0.20;;;;;;;;;;5024869;28;20654;-79
2022/03/11 00:29:53;;;;;;;0.10;0.10;;;;;;;;;;5025489;28;20625;-78
2022/03/11 00:32:21;;;;;;;0.10;0.10;;;;;;;;;;5025247;28;20722;-78
2022/03/11 00:34:48;;;;;;;0.20;0.20;;;;;;;;;;5040163;28;20622;-78
2022/03/11 00:37:15;;;;;;;0.20;0.20;;;;;;;;;;5039123;28;20614;-78
2022/03/11 00:39:43;;;;;;;0.10;0.10;;;;;;;;;;5027914;28;20679;-78
2022/03/11 00:42:10;;;;;;;0.20;0.20;;;;;;;;;;5043477;28;20647;-78
2022/03/11 00:44:40;;;;;;;0.20;0.20;;;;;;;;;;5044480;28;20653;-78
2022/03/11 00:47:07;;;;;;;0.10;0.10;;;;;;;;;;5022505;28;20662;-78
2022/03/11 00:49:34;;;;;;;0.20;0.20;;;;;;;;;;5040330;28;20617;-78
2022/03/11 00:52:02;;;;;;;0.10;0.10;;;;;;;;;;5026251;28;20625;-78
2022/03/11 00:54:29;;;;;;;0.10;0.10;;;;;;;;;;5020590;28;20692;-78
2022/03/11 00:56:57;;;;;;;0.20;0.20;;;;;;;;;;5023817;28;20625;-78
2022/03/11 00:59:24;;;;;;;0.20;0.20;;;;;;;;;;5023455;28;20626;-78
2022/03/11 01:01:53;;;;;;;0.20;0.20;;;;;;;;;;5021787;28;20638;-78
2022/03/11 01:04:20;;;;;;;0.20;0.20;;;;;;;;;;5018780;28;20661;-79
2022/03/11 01:06:56;;;;;;;0.20;0.20;;;;;;;;;;5021643;28;20743;-78
2022/03/11 01:09:23;;;;;;;0.20;0.20;;;;;;;;;;5022052;28;20656;-78
2022/03/11 01:11:50;;;;;;;0.20;0.20;;;;;;;;;;5026268;28;20649;-78
2022/03/11 01:14:18;;;;;;;0.13;0.13;;;;;;;;;;5036210;28;20650;-78
2022/03/11 01:16:45;;;;;;;0.10;0.10;;;;;;;;;;5026085;28;20626;-78
2022/03/11 01:19:13;;;;;;;0.20;0.20;;;;;;;;;;5026030;28;20626;-77
2022/03/11 01:21:41;;;;;;;0.20;0.20;;;;;;;;;;5041761;28;20616;-77
2022/03/11 01:24:08;;;;;;;0.20;0.20;;;;;;;;;;5042780;28;20649;-78
2022/03/11 01:26:36;;;;;;;0.20;0.20;;;;;;;;;;5021708;28;20662;-78
2022/03/11 01:29:04;;;;;;;0.13;0.13;;;;;;;;;;5020721;28;20644;-77
2022/03/11 01:31:31;;;;;;;0.10;0.10;;;;;;;;;;5027488;28;20621;-77
2022/03/11 01:33:59;;;;;;;0.20;0.20;;;;;;;;;;5025721;28;20668;-77
2022/03/11 01:36:28;;;;;;;0.20;0.20;;;;;;;;;;5020891;28;20629;-78
2022/03/11 01:38:56;;;;;;;0.20;0.20;;;;;;;;;;5021077;28;20641;-78
2022/03/11 01:41:23;;;;;;;0.20;0.20;;;;;;;;;;5028891;28;20641;-77
2022/03/11 01:43:51;;;;;;;0.20;0.20;;;;;;;;;;5047556;28;20652;-78
2022/03/11 01:46:18;;;;;;;0.20;0.20;;;;;;;;;;5046232;28;20648;-76
2022/03/11 01:48:46;;;;;;;0.20;0.20;;;;;;;;;;5045161;28;20605;-78
2022/03/11 01:51:13;;;;;;;0.20;0.20;;;;;;;;;;5046602;28;20621;-77
2022/03/11 01:53:42;;;;;;;0.20;0.20;;;;;;;;;;5026100;28;20692;-78
2022/03/11 01:56:09;;;;;;;0.20;0.20;;;;;;;;;;5047394;28;20606;-78
2022/03/11 01:58:36;;;;;;;0.20;0.20;;;;;;;;;;5040819;28;20669;-77
2022/03/11 02:01:06;;;;;;;0.20;0.20;;;;;;;;;;5027252;28;20659;-78
2022/03/11 02:03:33;;;;;;;0.20;0.20;;;;;;;;;;5046532;28;20653;-78
2022/03/11 02:06:02;;;;;;;0.20;0.20;;;;;;;;;;5029445;28;20681;-78
2022/03/11 02:08:30;;;;;;;0.20;0.20;;;;;;;;;;5023509;28;20694;-78
2022/03/11 02:10:58;;;;;;;0.20;0.20;;;;;;;;;;5026325;28;20744;-78
2022/03/11 02:13:26;;;;;;;0.20;0.20;;;;;;;;;;5023265;28;20662;-78
2022/03/11 02:15:53;;;;;;;0.20;0.20;;;;;;;;;;5023029;28;20726;-78
2022/03/11 02:18:21;;;;;;;0.20;0.20;;;;;;;;;;5044637;28;20703;-78
2022/03/11 02:20:50;;;;;;;0.20;0.20;;;;;;;;;;5026725;28;20636;-78
2022/03/11 02:23:18;;;;;;;0.20;0.20;;;;;;;;;;5031633;28;20661;-78
2022/03/11 02:25:47;;;;;;;0.20;0.20;;;;;;;;;;5027275;28;20653;-78
2022/03/11 02:28:14;;;;;;;0.20;0.20;;;;;;;;;;5040663;28;20618;-78
2022/03/11 02:30:42;;;;;;;0.20;0.20;;;;;;;;;;5024961;28;20660;-78
2022/03/11 02:33:09;;;;;;;0.20;0.20;;;;;;;;;;5031366;28;20652;-78
2022/03/11 02:35:36;;;;;;;0.20;0.20;;;1.00;99.90;;;;;;5024111;28;20630;-78
2022/03/11 02:38:03;;;;;;;0.20;0.20;;;0.90;99.90;;;;;;5047012;28;20622;-78
2022/03/11 02:40:32;;;;;;;0.20;0.20;;;0.90;99.90;;;;;;5029088;28;20629;-79
2022/03/11 02:43:01;;;;;;;0.20;0.20;;;0.90;99.90;;;;;;5025952;28;20685;-79
2022/03/11 02:45:28;;;;;;;0.20;0.20;;;0.90;99.90;;;;;;5024385;28;20622;-78
2022/03/11 02:47:55;;;;;;;0.13;0.13;;;0.90;99.90;;;;;;5025306;28;20220;-79
2022/03/11 02:50:22;;;;;;;0.20;0.20;;;0.90;99.90;;;;;;5027016;28;20633;-79
2022/03/11 02:52:49;;;;;;;0.20;0.20;;;0.80;99.90;;;;;;5025260;28;20645;-78
2022/03/11 02:55:16;;;;;;;0.20;0.20;;;0.80;99.90;;;;;;5046419;28;20683;-79
2022/03/11 02:57:43;;;;;;;0.20;0.20;;;0.80;99.90;;;;;;5025329;28;20613;-79
2022/03/11 03:00:13;;;;;;;0.20;0.20;;;0.80;99.90;;;;;;5028331;28;20621;-78
2022/03/11 03:02:40;;;;;;;0.20;0.20;;;0.80;99.90;;;;;;5024177;28;20626;-78
2022/03/11 03:05:08;;;;;;;0.20;0.20;;;0.80;99.90;;;;;;5028691;28;20683;-78
2022/03/11 03:07:35;;;;;;;0.20;0.20;;;0.70;99.90;;;;;;5026915;28;20664;-79
2022/03/11 03:10:02;;;;;;;0.20;0.20;;;0.70;99.90;;;;;;5025170;28;20626;-78
2022/03/11 03:12:30;;;;;;;0.20;0.20;;;0.70;99.90;;;;;;5022587;28;20633;-78
2022/03/11 03:14:57;;;;;;;0.20;0.20;;;0.60;99.90;;;;;;5026153;28;20712;-79
2022/03/11 03:17:25;;;;;;;0.20;0.20;;;0.60;99.90;;;;;;5019510;28;20713;-78
2022/03/11 03:19:52;;;;;;;0.20;0.20;;;0.60;99.90;;;;;;5046034;28;20278;-79
2022/03/11 03:22:19;;;;;;;0.20;0.20;;;0.50;99.90;;;;;;5025009;28;20629;-78
2022/03/11 03:24:47;;;;;;;0.20;0.20;;;0.50;99.90;;;;;;5025670;28;20760;-78
2022/03/11 03:27:14;;;;;;;0.20;0.20;;;0.50;99.90;;;;;;5023931;28;20658;-78
2022/03/11 03:29:41;;;;;;;0.20;0.20;;;0.50;99.90;;;;;;5025114;28;20618;-79
2022/03/11 03:32:09;;;;;;;0.20;0.20;;;0.40;99.90;;;;;;5028264;28;20995;-78
2022/03/11 03:34:38;;;;;;;0.20;0.20;;;0.40;99.90;;;;;;5027235;28;20653;-78
2022/03/11 03:37:08;;;;;;;0.20;0.20;;;0.40;99.90;;;;;;5026823;28;20204;-78
2022/03/11 03:39:36;;;;;;;0.20;0.20;;;0.40;99.90;;;;;;5027875;28;20637;-78
2022/03/11 03:42:04;;;;;;;0.20;0.20;;;0.40;99.90;;;;;;5027420;28;20214;-78
2022/03/11 03:44:31;;;;;;;0.20;0.20;;;0.40;99.90;;;;;;5028230;28;20660;-78
2022/03/11 03:46:58;;;;;;;0.20;0.20;;;0.40;99.90;;;;;;5042988;28;20238;-78
2022/03/11 03:49:26;;;;;;;0.25;0.25;;;0.40;99.90;;;;;;5024034;28;20645;-78
2022/03/11 03:51:54;;;;;;;0.20;0.20;;;0.30;99.90;;;;;;5028746;28;20277;-78
2022/03/11 03:54:21;;;;;;;0.20;0.20;;;0.30;99.90;;;;;;5039416;28;20318;-78
2022/03/11 03:56:49;;;;;;;0.20;0.20;;;0.30;99.90;;;;;;5040381;28;20257;-78
2022/03/11 03:59:16;;;;;;;0.20;0.20;;;0.20;99.90;;;;;;5044008;28;20207;-78
2022/03/11 04:01:44;;;;;;;0.20;0.20;;;0.30;99.90;;;;;;5026791;28;20202;-78
2022/03/11 04:04:13;;;;;;;0.20;0.20;;;0.20;99.90;;;;;;5044388;28;20231;-77
2022/03/11 04:06:42;;;;;;;0.20;0.20;;;0.20;99.90;;;;;;5025041;28;20215;-78
2022/03/11 04:09:12;;;;;;;0.20;0.20;;;0.20;99.90;;;;;;5042464;28;20191;-78
2022/03/11 04:11:40;;;;;;;0.20;0.20;;;0.10;99.90;;;;;;5024958;28;20203;-78
2022/03/11 04:14:08;;;;;;;0.20;0.20;;;0.00;99.90;;;;;;5044111;28;20235;-79
2022/03/11 04:16:35;;;;;;;0.20;0.20;;;0.00;99.90;;;;;;5020964;28;20227;-79
2022/03/11 04:19:02;;;;;;;0.20;0.20;;;0.00;99.90;;;;;;5042515;28;20196;-77
2022/03/11 04:21:29;;;;;;;0.20;0.20;;;0.00;99.90;;;;;;5045383;28;20696;-78
2022/03/11 04:23:56;;;;;;;0.20;0.20;;;-0.10;99.90;;;;;;5042738;28;20219;-78
2022/03/11 04:26:25;;;;;;;0.20;0.20;;;-0.10;99.90;;;;;;5021181;28;20199;-78
2022/03/11 04:28:52;;;;;;;0.28;0.28;;;-0.10;99.90;;;;;;5018127;28;20219;-78
2022/03/11 04:31:19;;;;;;;0.20;0.20;;;-0.10;99.90;;;;;;5024164;28;20203;-78
2022/03/11 04:33:46;;;;;;;0.20;0.20;;;-0.10;99.90;;;;;;5025290;28;20229;-78
2022/03/11 04:36:13;;;;;;;0.25;0.25;;;-0.20;99.90;;;;;;5021107;28;20826;-78
2022/03/11 04:38:41;;;;;;;0.20;0.20;;;-0.20;99.90;;;;;;5023053;28;20199;-78
2022/03/11 04:41:08;;;;;;;0.25;0.25;;;-0.20;99.90;;;;;;5044930;28;20203;-78
2022/03/11 04:43:36;;;;;;;0.20;0.20;;;-0.20;99.90;;;;;;5030773;28;20227;-78
2022/03/11 04:46:03;;;;;;;0.20;0.20;;;-0.20;99.90;;;;;;5042708;28;20203;-78
2022/03/11 04:48:31;;;;;;;0.30;0.30;;;-0.20;99.90;;;;;;5040161;28;20307;-79
2022/03/11 04:50:58;;;;;;;0.20;0.20;;;-0.20;99.90;;;;;;5023958;28;20254;-78
2022/03/11 04:53:25;;;;;;;0.30;0.30;;;-0.30;99.90;;;;;;5021700;28;20223;-79
2022/03/11 04:55:52;;;;;;;0.20;0.20;;;-0.30;99.90;;;;;;5027141;28;20211;-78
2022/03/11 04:58:19;;;;;;;0.20;0.20;;;-0.30;99.90;;;;;;5043578;28;20199;-78
2022/03/11 05:00:47;;;;;;;0.20;0.20;;;-0.30;99.90;;;;;;5026965;28;20298;-78
2022/03/11 05:03:14;;;;;;;0.20;0.20;;;-0.30;99.90;;;;;;5039306;28;20228;-78
2022/03/11 05:05:42;;;;;;;0.25;0.25;;;-0.30;99.90;;;;;;5046238;28;20208;-78
2022/03/11 05:08:09;;;;;;;0.20;0.20;;;-0.30;99.90;;;;;;5022966;28;20231;-76
2022/03/11 05:10:36;;;;;;;0.20;0.20;;;-0.40;99.90;;;;;;5037635;28;20192;-77
2022/03/11 05:13:03;;;;;;;0.20;0.20;;;-0.30;99.90;;;;;;5043430;28;20227;-77
2022/03/11 05:15:30;;;;;;;0.20;0.20;;;-0.40;99.90;;;;;;5025646;28;20203;-78
2022/03/11 05:17:59;;;;;;;0.20;0.20;;;-0.40;99.90;;;;;;5039118;28;20205;-75
2022/03/11 05:20:26;;;;;;;0.28;0.28;;;-0.40;99.90;;;;;;5024291;28;20208;-76
2022/03/11 05:22:53;;;;;;;0.20;0.20;;;-0.40;99.90;;;;;;5042179;28;20223;-76
2022/03/11 05:25:20;;;;;;;0.20;0.20;;;-0.40;99.90;;;;;;5024153;28;20218;-76
2022/03/11 05:27:48;;;;;;;0.20;0.20;;;-0.40;99.90;;;;;;5043897;28;20227;-77
2022/03/11 05:30:15;;;;;;;0.20;0.20;;;-0.40;99.90;;;;;;5021630;28;20203;-75
2022/03/11 05:32:43;;;;;;;0.30;0.30;;;-0.50;99.90;;;;;;5025100;28;20206;-75
2022/03/11 05:35:12;;;;;;;0.20;0.20;;;-0.50;99.90;;;;;;5021753;28;20200;-75
2022/03/11 05:37:41;;;;;;;0.20;0.20;;;-0.40;99.90;;;;;;5021912;28;20207;-78
2022/03/11 05:40:09;;;;;;;0.20;0.20;;;-0.40;99.90;;;;;;5025337;28;20210;-79
2022/03/11 05:42:36;;;;;;;0.20;0.20;;;-0.40;99.90;;;;;;5044181;28;20195;-76
2022/03/11 05:45:08;;;;;;;0.20;0.20;;;-0.40;99.90;;;;;;5022426;28;20195;-76
2022/03/11 05:47:35;;;;;;;0.30;0.30;;;-0.40;99.90;;;;;;5043602;28;20207;-78
2022/03/11 05:50:03;;;;;;;0.20;0.20;;;-0.40;99.90;;;;;;5022796;28;20207;-78
2022/03/11 05:52:31;;;;;;;0.28;0.28;;;-0.40;99.90;;;;;;5023641;28;20223;-76
2022/03/11 05:54:58;;;;;;;0.30;0.30;;;-0.40;99.90;;;;;;5025978;28;20357;-77
2022/03/11 05:57:25;;;;;;;0.30;0.30;;;-0.40;99.90;;;;;;5041250;28;21137;-75
2022/03/11 05:59:52;;;;;;;0.20;0.20;;;-0.40;99.90;;;;;;5044256;28;20283;-74
2022/03/11 06:02:19;;;;;;;0.22;0.22;;;-0.30;99.90;;;;;;5026321;28;20207;-75
2022/03/11 06:04:50;;;;;;;0.20;0.20;;;-0.30;99.90;;;;;;5037019;28;20195;-74
2022/03/11 06:07:17;;;;;;;0.20;0.20;;;-0.10;99.90;;;;;;5025320;28;20219;-75
2022/03/11 06:09:46;;;;;;;0.30;0.30;;;-0.10;99.90;;;;;;5021829;28;20203;-75
2022/03/11 06:12:12;;;;;;;0.20;0.20;;;0.00;99.90;;;;;;5021989;28;20289;-75
2022/03/11 06:14:40;;;;;;;0.20;0.20;;;0.10;99.90;;;;;;5044229;28;20231;-75
2022/03/11 06:17:07;;;;;;;0.20;0.20;;;0.20;99.90;;;;;;5026183;28;20203;-75
2022/03/11 06:19:34;;;;;;;0.30;0.30;;;0.30;99.90;;;;;;5021408;28;20191;-76
2022/03/11 06:22:01;;;;;;;0.20;0.20;;;0.50;99.90;;;;;;5043887;28;20200;-75
2022/03/11 06:24:30;;;;;;;0.25;0.25;;;0.60;99.90;;;;;;5040184;28;20218;-75
2022/03/11 06:26:58;;;;;;;0.20;0.20;;;0.70;99.90;;;;;;5040783;28;20206;-77
2022/03/11 06:29:25;;;;;;;0.25;0.25;;;0.80;99.90;;;;;;5044404;28;20223;-77
2022/03/11 06:31:52;;;;;;;0.20;0.20;;;0.90;99.90;;;;;;5027876;28;20203;-76
2022/03/11 06:34:19;;;;;;;0.20;0.20;;;1.00;99.90;;;;;;5024949;28;20230;-77
2022/03/11 06:36:46;;;;;;;0.20;0.20;;;1.00;99.90;;;;;;5027961;28;20203;-77
2022/03/11 06:39:14;;;;;;;0.20;0.20;;;1.00;99.90;;;;;;5028687;28;20203;-77
2022/03/11 06:41:42;;;;;;;0.30;0.30;;;1.10;99.90;;;;;;5023615;28;20200;-77
2022/03/11 06:44:10;;;;;;;0.20;0.20;;;1.10;99.90;;;;;;5025592;28;20234;-76
2022/03/11 06:46:37;;;;;;;0.20;0.20;;;1.30;99.90;;;;;;5028340;28;20691;-76
2022/03/11 06:49:05;;;;;;;0.20;0.20;;;1.30;99.90;;;;;;5026786;28;20234;-76
2022/03/11 06:51:33;;;;;;;0.20;0.20;;;1.40;99.90;;;;;;5025870;28;20653;-77
2022/03/11 06:54:00;;;;;;;0.20;0.20;;;1.40;99.90;;;;;;5028602;28;20227;-77
2022/03/11 06:56:27;;;;;;;0.20;0.20;;;1.50;99.90;;;;;;5046675;28;20210;-77
2022/03/11 06:58:55;;;;;;;0.20;0.20;;;1.60;99.90;;;;;;5023470;28;20203;-76
2022/03/11 07:01:24;;;;;;;0.20;0.20;;;1.60;99.90;;;;;;5028239;28;20280;-77
2022/03/11 07:03:51;;;;;;;0.30;0.30;;;1.60;99.90;;;;;;5023529;28;20215;-76
2022/03/11 07:06:21;;;;;;;0.20;0.20;;;1.60;99.90;;;;;;5021488;28;20621;-76
2022/03/11 07:08:48;;;;;;;0.23;0.23;;;1.80;99.90;;;;;;5028284;28;20697;-77
2022/03/11 07:11:15;;;;;;;0.20;0.20;;;2.00;99.90;;;;;;5027188;28;20708;-76
2022/03/11 07:13:44;;;;;;;0.20;0.20;;;2.10;99.90;;;;;;5028398;28;20656;-76
2022/03/11 07:16:12;;;;;;;0.20;0.20;;;2.30;99.90;;;;;;5027549;28;20737;-77
2022/03/11 07:18:40;;;;;;;0.20;0.20;;;2.40;99.90;;;;;;5023563;28;20680;-77
2022/03/11 07:21:09;;;;;;;0.30;0.30;;;2.50;99.90;;;;;;5028700;28;20636;-77
2022/03/11 07:23:37;;;;;;;0.20;0.20;;;2.60;99.90;;;;;;5026370;28;20650;-77
2022/03/11 07:26:04;;;;;;;0.30;0.30;;;2.60;99.90;;;;;;5044750;28;20653;-76
2022/03/11 07:28:31;;;;;;;0.20;0.20;;;2.80;99.90;;;;;;5025109;28;20661;-77
2022/03/11 07:30:59;;;;;;;0.30;0.30;;;2.80;99.90;;;;;;5026215;28;20622;-78
2022/03/11 07:33:26;;;;;;;0.20;0.20;;;3.00;99.90;;;;;;5027010;28;20662;-77
2022/03/11 07:35:55;;;;;;;0.27;0.27;;;3.10;99.90;;;;;;5044795;28;20618;-78
2022/03/11 07:38:24;;;;;;;0.20;0.20;;;3.20;99.90;;;;;;5039319;28;20729;-77
2022/03/11 07:40:51;;;;;;;0.20;0.20;;;3.30;99.90;;;;;;5045431;28;20610;-77
2022/03/11 07:43:18;;;;;;;0.20;0.20;;;3.30;99.90;;;;;;5043444;28;20711;-77
2022/03/11 07:45:45;;;;;;;0.20;0.20;;;3.40;99.90;;;;;;5027782;28;20626;-77
2022/03/11 07:48:13;;;;;;;0.20;0.20;;;3.50;99.90;;;;;;5027281;28;20715;-78
2022/03/11 07:50:41;;;;;;;0.20;0.20;;;3.60;99.90;;;;;;5043880;28;20638;-77
2022/03/11 07:53:09;;;;;;;0.20;0.20;;;3.90;99.90;;;;;;5028413;28;20657;-78
2022/03/11 07:55:36;;;;;;;0.20;0.20;;;4.00;99.90;;;;;;5026855;28;20625;-77
2022/03/11 07:58:04;;;;;;;0.20;0.20;;;4.10;99.90;;;;;;5027677;28;20618;-78
2022/03/11 08:00:31;;;;;;;0.27;0.27;;;4.20;99.90;;;;;;5044949;28;20701;-77
2022/03/11 08:02:59;;;;;;;0.20;0.20;;;4.10;99.90;;;;;;5027701;28;20673;-77
2022/03/11 08:05:26;;;;;;;0.20;0.20;;;4.20;99.90;;;;;;5027874;28;20620;-77
2022/03/11 08:07:53;;;;;;;0.20;0.20;;;4.30;99.90;;;;;;5044515;28;20707;-77
2022/03/11 08:10:21;;;;;;;0.20;0.20;;;4.40;99.90;;;;;;5025135;28;20741;-77
2022/03/11 08:12:50;;;;;;;0.20;0.20;;;4.40;99.90;;;;;;5045837;28;20677;-77
2022/03/11 08:15:18;;;;;;;0.20;0.20;;;4.60;99.90;;;;;;5045500;28;20602;-77
2022/03/11 08:17:45;;;;;;;0.20;0.20;;;4.50;99.90;;;;;;5026139;28;20616;-78
2022/03/11 08:20:12;;;;;;;0.20;0.20;;;4.60;99.90;;;;;;5022252;28;21186;-77
2022/03/11 08:22:39;;;;;;;0.30;0.30;;;4.60;99.90;;;;;;5043285;28;20667;-78
2022/03/11 08:25:09;;;;;;;0.30;0.30;;;4.70;99.90;;;;;;5045554;28;20609;-77
2022/03/11 08:27:40;;;;;;;0.20;0.20;;;;;;;;;;5043789;28;20609;-77
2022/03/11 08:30:09;;;;;;;0.20;0.20;;;4.70;99.90;;;;;;5043977;28;20605;-78
2022/03/11 08:32:36;;;;;;;0.20;0.20;;;5.30;99.90;;;;;;5026306;28;21259;-78
2022/03/11 08:35:04;;;;;;;0.20;0.20;;;5.40;99.90;;;;;;5029896;28;20654;-78
2022/03/11 08:37:31;;;;;;;0.20;0.20;;;5.60;99.90;;;;;;5026171;28;20628;-77
2022/03/11 08:39:58;;;;;;;0.20;0.20;;;5.70;99.90;;;;;;5027376;28;20622;-78
2022/03/11 08:42:25;;;;;;;0.20;0.20;;;5.70;99.90;;;;;;5043648;28;20616;-77
2022/03/11 08:44:54;;;;;;;0.20;0.20;;;5.70;99.90;;;;;;5042180;28;20628;-79
2022/03/11 08:47:21;;;;;;;0.10;0.10;;;5.90;99.90;;;;;;5024996;28;20717;-78
2022/03/11 08:49:48;;;;;;;0.20;0.20;;;5.90;99.90;;;;;;5044176;28;20669;-78
2022/03/11 08:52:15;;;;;;;0.20;0.20;;;5.90;99.90;;;;;;5027734;28;20636;-79
2022/03/11 08:54:42;;;;;;;0.20;0.20;;;5.90;99.90;;;;;;5026655;28;20669;-78
2022/03/11 08:57:09;;;;;;;0.20;0.20;;;5.80;99.90;;;;;;5045307;28;20612;-78
2022/03/11 08:59:36;;;;;;;0.20;0.20;;;5.80;99.90;;;;;;5043140;28;20649;-78
2022/03/11 09:02:07;;;;;;;0.20;0.20;;;5.80;99.80;;;;;;5027194;28;21053;-78
2022/03/11 09:04:34;;;;;;;0.20;0.20;;;5.90;99.60;;;;;;5040838;28;20649;-78
2022/03/11 09:07:01;;;;;;;0.20;0.20;;;;;;;;;;5023909;28;20622;-79
2022/03/11 09:09:29;;;;;;;0.20;0.20;;;;;;;;;;5023450;28;20685;-78
2022/03/11 09:11:57;;;;;;;0.20;0.20;;;;;;;;;;5045409;28;20630;-79
2022/03/11 09:14:24;;;;;;;0.20;0.20;;;;;;;;;;5027389;28;20681;-78
2022/03/11 09:16:52;;;;;;;0.20;0.20;;;5.80;99.90;;;;;;5045364;28;20629;-79
2022/03/11 09:19:20;;;;;;;0.10;0.10;;;6.20;99.80;;;;;;5023466;28;20634;-78
2022/03/11 09:21:47;;;;;;;0.20;0.20;;;6.50;99.90;;;;;;5024721;28;20626;-78
2022/03/11 09:24:15;;;;;;;0.10;0.10;;;6.80;99.90;;;;;;5022855;28;20705;-78
2022/03/11 09:26:42;;;;;;;0.13;0.13;;;6.80;99.90;;;;;;5044302;28;20617;-77
2022/03/11 09:29:09;;;;;;;0.20;0.20;;;6.80;99.60;;;;;;5022827;28;20647;-78
2022/03/11 09:31:36;;;;;;;0.20;0.20;;;6.80;99.60;;;;;;5044044;28;20681;-79
2022/03/11 09:34:03;;;;;;;0.10;0.10;;;6.80;99.80;;;;;;5027579;28;20661;-78
2022/03/11 09:36:32;;;;;;;0.20;0.20;;;6.80;99.60;;;;;;5042654;28;20605;-78
2022/03/11 09:38:59;;;;;;;0.20;0.20;;;6.80;99.20;;;;;;5042050;28;20705;-78
2022/03/11 09:41:27;;;;;;;0.20;0.20;;;;;;;;;;5045296;28;20732;-78
2022/03/11 09:43:56;;;;;;;0.20;0.20;;;6.80;99.40;;;;;;5022029;28;20757;-78
2022/03/11 09:46:24;;;;;;;0.20;0.20;;;7.00;98.70;;;;;;5025904;28;20626;-78
2022/03/11 09:48:52;;;;;;;0.10;0.10;;;7.00;99.10;;;;;;5023583;28;20668;-79
2022/03/11 09:51:20;;;;;;;0.20;0.20;;;7.00;98.90;;;;;;5044312;28;20683;-79
2022/03/11 09:53:52;;;;;;;0.20;0.20;;;7.00;98.70;;;;;;5045256;28;20649;-79
2022/03/11 09:56:21;;;;;;;0.20;0.20;;;7.10;98.50;;;;;;5024349;28;20633;-79
2022/03/11 09:58:48;;;;;;;0.20;0.20;;;7.20;98.60;;;;;;5022756;28;20658;-79
2022/03/11 10:01:15;;;;;;;0.20;0.20;;;7.20;98.40;;;;;;5028081;28;20636;-78
2022/03/11 10:03:42;;;;;;;0.17;0.17;;;7.40;98.90;;;;;;5031276;28;20673;-79
2022/03/11 10:06:09;;;;;;;0.10;0.10;;;7.50;98.40;;;;;;5027203;28;20636;-79
2022/03/11 10:08:39;;;;;;;0.20;0.20;;;7.50;98.60;;;;;;5026599;28;20678;-79
2022/03/11 10:11:22;;;;;;;0.10;0.10;;;7.50;98.00;;;;;;5042908;28;20621;-78
2022/03/11 10:13:51;;;;;;;0.10;0.10;;;7.40;98.10;;;;;;5028961;28;20653;-78
2022/03/11 10:16:20;;;;;;;0.10;0.10;;;7.40;97.10;;;;;;5029632;28;20636;-78
2022/03/11 10:18:55;;;;;;;0.20;0.20;;;7.30;97.30;;;;;;5048190;28;20633;-78
2022/03/11 10:21:28;;;;;;;0.10;0.10;;;7.30;97.30;;;;;;5026615;28;20621;-79
2022/03/11 10:23:56;;;;;;;0.10;0.10;;;7.50;97.90;;;;;;5030186;28;20661;-79
2022/03/11 10:26:39;;;;;;;0.20;0.20;;;7.70;97.30;;;;;;5024682;28;20621;-78
2022/03/11 10:29:09;;;;;;;0.20;0.20;;;7.80;96.80;;;;;;5025846;28;20752;-79
2022/03/11 10:31:39;;;;;;;0.10;0.10;;;7.80;97.30;;;;;;5026854;28;20640;-79
2022/03/11 10:34:25;;;;;;;0.20;0.20;;;7.80;96.70;;;;;;5029293;28;20657;-78
2022/03/11 10:36:55;;;;;;;0.20;0.20;;;7.90;96.50;;;;;;5026538;28;20618;-78
2022/03/11 10:39:25;;;;;;;0.20;0.20;;;;;;;;;;5043334;28;20636;-79
2022/03/11 10:41:55;;;;;;;0.20;0.20;;;;;;;;;;5029493;28;20732;-78
2022/03/11 10:44:25;;;;;;;0.13;0.13;;;;;;;;;;5031583;28;20687;-78
2022/03/11 10:46:53;;;;;;;0.10;0.10;;;;;;;;;;5032156;28;20707;-78
2022/03/11 10:49:31;;;;;;;0.20;0.20;;;;;;;;;;5029125;28;20658;-77
2022/03/11 10:51:59;;;;;;;0.20;0.20;;;;;;;;;;5053355;28;20700;-76
2022/03/11 10:54:27;;;;;;;0.10;0.10;;;;;;;;;;5031650;28;20668;-75
2022/03/11 10:56:56;;;;;;;0.20;0.20;;;;;;;;;;5045026;28;20606;-76
2022/03/11 10:59:27;;;;;;;0.20;0.20;;;;;;;;;;5044445;28;21020;-78
2022/03/11 11:01:56;;;;;;;0.20;0.20;;;;;;;;;;5027072;28;20625;-76
2022/03/11 11:04:24;;;;;;;0.20;0.20;;;;;;;;;;5045273;28;20728;-74
2022/03/11 11:06:51;;;;;;;0.20;0.20;;;;;;;;;;5047468;28;20608;-75
2022/03/11 11:09:22;;;;;;;0.20;0.20;;;;;;;;;;5042143;28;20660;-75
2022/03/11 11:11:50;;;;;;;0.10;0.10;;;;;;;;;;5026846;28;20657;-75
2022/03/11 11:14:19;;;;;;;0.13;0.13;;;8.00;96.40;;;;;;5045878;28;20645;-77
2022/03/11 11:16:48;;;;;;;0.20;0.20;;;9.70;94.10;;;;;;5028383;28;20649;-77
2022/03/11 11:19:17;;;;;;;0.13;0.13;;;9.70;94.70;;;;;;5020599;28;20628;-78
2022/03/11 11:21:46;;;;;;;0.20;0.20;;;9.80;94.60;;;;;;5028519;28;20622;-78
2022/03/11 11:24:17;;;;;;;0.20;0.20;;;9.90;94.00;;;;;;5027669;28;20665;-80
2022/03/11 11:26:47;;;;;;;0.10;0.10;;;9.90;94.60;;;;;;5047595;28;20608;-78
2022/03/11 11:29:18;;;;;;;0.20;0.20;;;10.00;93.90;;;;;;5046410;28;20680;-78
2022/03/11 11:31:48;;;;;;;0.20;0.20;;;10.00;94.00;;;;;;5045438;28;20679;-79
2022/03/11 11:34:30;;;;;;;0.10;0.10;;;9.90;93.50;;;;;;5046818;28;20645;-78
2022/03/11 11:36:57;;;;;;;0.10;0.10;;;10.00;93.80;;;;;;5026290;28;20625;-78
2022/03/11 11:39:26;;;;;;;0.10;0.10;;;;;;;;;;5025596;28;20617;-78
2022/03/11 11:41:56;;;;;;;0.20;0.20;;;10.20;94.20;;;;;;5028592;28;21187;-79
2022/03/11 11:44:33;;;;;;;0.20;0.20;;;10.20;93.70;;;;;;5044455;28;20661;-79
2022/03/11 11:47:10;;;;;;;0.10;0.10;;;10.10;93.40;;;;;;5043404;28;20644;-79
2022/03/11 11:49:41;;;;;;;0.10;0.10;;;10.20;94.20;;;;;;5041520;28;20650;-78
2022/03/11 11:52:12;;;;;;;0.10;0.10;;;10.10;92.90;;;;;;5022736;28;20664;-79
2022/03/11 11:54:41;;;;;;;0.10;0.10;;;10.10;93.10;;;;;;5045192;28;20661;-79
2022/03/11 11:57:14;;;;;;;0.10;0.10;;;10.10;93.60;;;;;;5041567;28;20609;-79
2022/03/11 11:59:42;;;;;;;0.10;0.10;;;10.00;93.10;;;;;;5028243;28;20680;-79
2022/03/11 12:02:34;;;;;;;0.10;0.10;;;10.10;93.50;;;;;;5046022;28;20659;-79
2022/03/11 12:05:40;;;;;;;0.10;0.10;;;10.00;92.90;;;;;;5047769;28;20629;-79
2022/03/11 12:08:08;;;;;;;0.10;0.10;;;10.00;92.80;;;;;;5027222;28;20641;-79
2022/03/11 12:10:49;;;;;;;0.20;0.20;;;10.00;92.50;;;;;;5030213;28;20662;-79
2022/03/11 12:13:32;;;;;;;0.10;0.10;;;9.90;92.20;;;;;;5044909;28;20768;-78
2022/03/11 12:15:59;;;;;;;0.20;0.20;;;9.90;92.60;;;;;;5022361;28;20630;-79
2022/03/11 12:18:40;;;;;;;0.10;0.10;;;;;;;;;;5025200;28;20754;-78
2022/03/11 12:21:09;;;;;;;0.10;0.10;;;;;;;;;;5031482;28;20621;-78
2022/03/11 12:23:37;;;;;;;0.10;0.10;;;;;;;;;;5043988;28;20666;-79
2022/03/11 12:26:12;;;;;;;0.10;0.10;;;;;;;;;;5027008;28;20645;-79
2022/03/11 12:28:42;;;;;;;0.10;0.10;;;;;;;;;;5026340;28;20637;-78
2022/03/11 12:31:11;;;;;;;0.10;0.10;;;;;;;;;;5029269;28;20646;-78
2022/03/11 12:33:40;;;;;;;0.10;0.10;;;;;;;;;;5029502;28;20657;-78
2022/03/11 12:36:08;;;;;;;0.10;0.10;;;;;;;;;;5044609;28;20648;-78
2022/03/11 12:38:37;;;;;;;0.20;0.20;;;;;;;;;;5047698;28;20618;-78
2022/03/11 12:41:05;;;;;;;0.10;0.10;;;;;;;;;;5029783;28;20622;-79
2022/03/11 12:43:33;;;;;;;0.20;0.20;;;;;;;;;;5029961;28;20676;-79
2022/03/11 12:46:01;;;;;;;0.10;0.10;;;;;;;;;;5027542;28;20203;-79
2022/03/11 12:48:29;;;;;;;0.10;0.10;;;;;;;;;;5047738;28;20673;-79
2022/03/11 12:50:58;;;;;;;0.10;0.10;;;;;;;;;;5027231;28;20657;-79
2022/03/11 12:53:26;;;;;;;0.10;0.10;;;;;;;;;;5021032;28;20661;-78
2022/03/11 12:55:54;;;;;;;0.10;0.10;;;;;;;;;;5026352;28;20221;-79
2022/03/11 12:58:27;;;;;;;0.10;0.10;;;;;;;;;;5048581;28;20296;-79
2022/03/11 13:00:55;;;;;;;0.10;0.10;;;;;;;;;;5026734;28;20647;-79
2022/03/11 13:03:27;;;;;;;0.10;0.10;;;;;;;;;;5018490;28;20227;-79
2022/03/11 13:05:54;;;;;;;0.10;0.10;;;;;;;;;;5027443;28;20209;-79
2022/03/11 13:08:23;;;;;;;0.10;0.10;;;;;;;;;;5023339;28;20207;-78
2022/03/11 13:10:52;;;;;;;0.20;0.20;;;;;;;;;;5045048;28;20218;-78
2022/03/11 13:13:21;;;;;;;0.10;0.10;;;;;;;;;;5018627;28;20293;-78
2022/03/11 13:15:49;;;;;;;0.10;0.10;;;;;;;;;;5026581;28;20211;-78
2022/03/11 13:18:19;;;;;;;0.10;0.10;;;;;;;;;;5024755;28;20227;-78
2022/03/11 13:20:47;;;;;;;0.10;0.10;;;;;;;;;;5026849;28;20204;-77
2022/03/11 13:23:16;;;;;;;0.10;0.10;;;;;;;;;;5045167;28;21261;-76
2022/03/11 13:25:46;;;;;;;0.10;0.10;;;;;;;;;;5042687;28;20218;-76
2022/03/11 13:28:18;;;;;;;0.10;0.10;;;;;;;;;;5026419;28;20207;-75
2022/03/11 13:30:46;;;;;;;0.17;0.17;;;;;;;;;;5044081;28;20297;-75
2022/03/11 13:33:15;;;;;;;0.20;0.20;;;;;;;;;;5021710;28;20353;-75
2022/03/11 13:35:43;;;;;;;0.10;0.10;;;;;;;;;;5027889;28;20204;-76